createdAt,value
2019-05-14T00:01:42.057Z,7.68
2019-05-14T00:04:11.558Z,7.71
2019-05-14T00:06:41.745Z,7.78
2019-05-14T00:09:12.158Z,7.78
2019-05-14T00:11:42.050Z,7.78
2019-05-14T00:14:11.589Z,7.73
2019-05-14T00:16:42.322Z,7.68
2019-05-14T00:19:11.228Z,7.72
2019-05-14T00:21:42.141Z,7.63
2019-05-14T00:24:11.350Z,7.62
2019-05-14T00:26:42.280Z,7.68
2019-05-14T00:29:11.447Z,7.62
2019-05-14T00:31:42.221Z,7.64
2019-05-14T00:34:11.207Z,7.56
2019-05-14T00:36:41.736Z,7.65
2019-05-14T00:39:11.215Z,7.67
2019-05-14T00:41:41.885Z,7.65
2019-05-14T00:44:10.012Z,7.63
2019-05-14T00:46:38.428Z,7.43
2019-05-14T00:49:06.838Z,7.35
2019-05-14T00:51:35.226Z,7.32
2019-05-14T00:54:03.724Z,7.38
2019-05-14T00:56:32.251Z,7.37
2019-05-14T00:59:01.399Z,7.30
2019-05-14T01:01:31.792Z,7.14
2019-05-14T01:04:01.247Z,7.18
2019-05-14T01:06:31.535Z,7.24
2019-05-14T01:09:01.319Z,7.23
2019-05-14T01:11:31.541Z,7.22
2019-05-14T01:14:01.665Z,7.23
2019-05-14T01:16:31.791Z,7.04
2019-05-14T01:19:02.012Z,7.01
2019-05-14T01:21:31.212Z,7.07
2019-05-14T01:24:01.831Z,6.88
2019-05-14T01:26:31.102Z,6.87
2019-05-14T01:29:01.387Z,6.75
2019-05-14T01:31:31.525Z,6.48
2019-05-14T01:34:02.001Z,6.64
2019-05-14T01:36:31.861Z,6.68
2019-05-14T01:39:01.769Z,6.59
2019-05-14T01:41:31.716Z,6.67
2019-05-14T01:44:01.785Z,6.52
2019-05-14T01:46:31.624Z,6.44
2019-05-14T01:49:01.615Z,6.45
2019-05-14T01:51:31.579Z,6.39
2019-05-14T01:54:01.481Z,6.44
2019-05-14T01:56:31.970Z,6.23
2019-05-14T01:59:01.679Z,6.21
2019-05-14T02:01:31.524Z,6.13
2019-05-14T02:04:02.232Z,6.12
2019-05-14T02:06:31.774Z,6.08
2019-05-14T02:09:02.018Z,6.16
2019-05-14T02:11:32.107Z,6.15
2019-05-14T02:14:02.405Z,5.99
2019-05-14T02:16:31.387Z,5.99
2019-05-14T02:19:01.364Z,6.19
2019-05-14T02:21:31.728Z,5.92
2019-05-14T02:24:02.033Z,5.83
2019-05-14T02:26:31.665Z,5.78
2019-05-14T02:29:02.023Z,5.84
2019-05-14T02:31:30.585Z,5.83
2019-05-14T02:33:59.913Z,5.72
2019-05-14T02:36:30.994Z,5.67
2019-05-14T02:39:00.470Z,5.79
2019-05-14T02:41:29.959Z,5.61
2019-05-14T02:43:59.399Z,5.73
2019-05-14T02:46:29.499Z,5.70
2019-05-14T02:48:59.509Z,5.70
2019-05-14T02:51:30.003Z,5.65
2019-05-14T02:53:59.352Z,5.73
2019-05-14T02:56:29.527Z,5.69
2019-05-14T02:59:00.457Z,5.66
2019-05-14T03:01:30.142Z,5.60
2019-05-14T03:03:59.827Z,5.58
2019-05-14T03:06:29.078Z,5.52
2019-05-14T03:09:00.042Z,5.49
2019-05-14T03:11:29.626Z,5.41
2019-05-14T03:13:59.947Z,5.37
2019-05-14T03:16:32.601Z,5.34
2019-05-14T03:18:59.470Z,5.33
2019-05-14T03:21:30.401Z,5.34
2019-05-14T03:24:00.798Z,5.31
2019-05-14T03:26:29.350Z,5.27
2019-05-14T03:29:00.068Z,5.28
2019-05-14T03:31:32.896Z,5.25
2019-05-14T03:34:03.019Z,5.26
2019-05-14T03:36:33.999Z,5.33
2019-05-14T03:38:59.355Z,5.34
2019-05-14T03:41:30.537Z,5.24
2019-05-14T03:44:00.136Z,5.18
2019-05-14T03:46:44.236Z,5.28
2019-05-14T03:49:00.131Z,5.27
2019-05-14T03:51:29.861Z,5.29
2019-05-14T03:54:06.574Z,5.33
2019-05-14T03:56:29.939Z,5.31
2019-05-14T03:59:00.002Z,5.41
2019-05-14T04:01:29.823Z,5.34
2019-05-14T04:03:59.399Z,5.44
2019-05-14T04:06:30.454Z,6.46
2019-05-14T04:09:00.925Z,7.25
2019-05-14T04:11:31.287Z,7.85
2019-05-14T04:14:03.348Z,8.31
2019-05-14T04:16:34.315Z,8.78
2019-05-14T04:19:03.047Z,9.69
2019-05-14T04:21:32.983Z,10.10
2019-05-14T04:24:03.606Z,10.68
2019-05-14T04:26:53.163Z,9.97
2019-05-14T04:29:10.124Z,9.96
2019-05-14T04:31:39.996Z,10.25
2019-05-14T04:34:10.674Z,9.89
2019-05-14T04:36:39.335Z,9.80
2019-05-14T04:39:09.475Z,10.33
2019-05-14T04:41:39.379Z,11.61
2019-05-14T04:44:09.787Z,11.54
2019-05-14T04:46:39.488Z,12.10
2019-05-14T04:49:09.667Z,13.00
2019-05-14T04:51:39.756Z,13.70
2019-05-14T04:54:09.411Z,13.58
2019-05-14T04:56:39.893Z,13.07
2019-05-14T04:59:13.502Z,13.31
2019-05-14T05:01:41.941Z,12.35
2019-05-14T05:04:10.335Z,13.08
2019-05-14T05:06:39.592Z,12.42
2019-05-14T05:09:09.566Z,11.05
2019-05-14T05:11:39.495Z,11.31
2019-05-14T05:14:08.923Z,11.74
2019-05-14T05:16:39.058Z,10.36
2019-05-14T05:19:10.457Z,11.54
2019-05-14T05:21:38.794Z,11.69
2019-05-14T05:24:09.192Z,10.02
2019-05-14T05:26:39.217Z,9.99
2019-05-14T05:29:10.339Z,9.43
2019-05-14T05:31:38.200Z,9.57
2019-05-14T05:34:08.964Z,8.29
2019-05-14T05:36:38.074Z,9.23
2019-05-14T05:39:08.581Z,9.60
2019-05-14T05:41:38.521Z,9.68
2019-05-14T05:44:08.198Z,10.48
2019-05-14T05:46:38.866Z,10.66
2019-05-14T05:49:08.099Z,10.61
2019-05-14T05:51:39.058Z,11.43
2019-05-14T05:54:09.053Z,10.04
2019-05-14T05:56:38.781Z,10.09
2019-05-14T05:59:09.557Z,10.38
2019-05-14T06:01:42.849Z,9.26
2019-05-14T06:04:08.744Z,9.11
2019-05-14T06:06:39.029Z,10.43
2019-05-14T06:09:08.923Z,10.17
2019-05-14T06:11:38.137Z,9.53
2019-05-14T06:14:08.322Z,9.72
2019-05-14T06:16:38.487Z,9.61
2019-05-14T06:19:08.253Z,9.91
2019-05-14T06:21:39.567Z,11.36
2019-05-14T06:24:09.023Z,10.00
2019-05-14T06:26:38.436Z,11.11
2019-05-14T06:29:08.442Z,11.63
2019-05-14T06:31:38.710Z,11.06
2019-05-14T06:34:09.563Z,11.44
2019-05-14T06:36:39.598Z,11.23
2019-05-14T06:39:09.203Z,11.15
2019-05-14T06:41:42.489Z,11.66
2019-05-14T06:44:09.222Z,11.83
2019-05-14T06:46:39.116Z,11.61
2019-05-14T06:49:09.135Z,12.32
2019-05-14T06:51:39.546Z,11.66
2019-05-14T06:54:09.179Z,11.28
2019-05-14T06:56:38.553Z,11.32
2019-05-14T06:59:08.988Z,12.13
2019-05-14T07:01:38.477Z,12.14
2019-05-14T07:04:08.859Z,11.55
2019-05-14T07:06:39.094Z,12.02
2019-05-14T07:09:08.251Z,12.15
2019-05-14T07:11:38.811Z,12.66
2019-05-14T07:14:10.908Z,12.47
2019-05-14T07:16:38.985Z,12.58
2019-05-14T07:19:09.490Z,13.42
2019-05-14T07:21:38.346Z,12.90
2019-05-14T07:24:08.755Z,14.70
2019-05-14T07:26:38.751Z,13.82
2019-05-14T07:29:11.549Z,14.30
2019-05-14T07:31:38.486Z,14.20
2019-05-14T07:34:08.916Z,14.54
2019-05-14T07:36:38.673Z,13.97
2019-05-14T07:39:09.404Z,12.32
2019-05-14T07:41:39.062Z,13.87
2019-05-14T07:44:09.305Z,14.55
2019-05-14T07:46:39.006Z,14.37
2019-05-14T07:49:10.999Z,14.13
2019-05-14T07:51:38.790Z,12.94
2019-05-14T07:54:08.342Z,12.97
2019-05-14T07:56:38.486Z,12.27
2019-05-14T07:59:08.903Z,12.83
2019-05-14T08:01:38.831Z,13.10
2019-05-14T08:04:11.286Z,13.38
2019-05-14T08:06:39.388Z,13.27
2019-05-14T08:09:09.982Z,13.59
2019-05-14T08:11:38.856Z,13.19
2019-05-14T08:14:09.036Z,13.63
2019-05-14T08:16:38.109Z,14.40
2019-05-14T08:19:22.908Z,12.91
2019-05-14T08:21:38.791Z,12.28
2019-05-14T08:24:08.827Z,12.92
2019-05-14T08:26:38.216Z,12.56
2019-05-14T08:29:08.667Z,13.22
2019-05-14T08:31:38.327Z,12.83
2019-05-14T08:34:09.160Z,12.58
2019-05-14T08:36:38.036Z,13.02
2019-05-14T08:39:08.837Z,13.67
2019-05-14T08:41:38.462Z,13.35
2019-05-14T08:44:08.509Z,13.26
2019-05-14T08:46:38.835Z,13.76
2019-05-14T08:49:08.932Z,13.47
2019-05-14T08:51:38.777Z,13.04
2019-05-14T08:54:08.261Z,13.52
2019-05-14T08:56:39.011Z,13.62
2019-05-14T08:59:08.752Z,14.83
2019-05-14T09:01:38.749Z,14.83
2019-05-14T09:04:09.069Z,13.70
2019-05-14T09:06:38.426Z,13.27
2019-05-14T09:09:09.487Z,13.56
2019-05-14T09:11:44.499Z,13.81
2019-05-14T09:14:10.872Z,13.66
2019-05-14T09:16:46.513Z,13.94
2019-05-14T09:19:08.834Z,12.55
2019-05-14T09:21:39.860Z,13.45
2019-05-14T09:24:09.562Z,13.85
2019-05-14T09:26:39.110Z,14.52
2019-05-14T09:29:19.477Z,14.81
2019-05-14T09:31:39.112Z,15.03
2019-05-14T09:34:09.197Z,14.52
2019-05-14T09:36:39.515Z,14.89
2019-05-14T09:39:11.789Z,14.59
2019-05-14T09:41:38.893Z,14.45
2019-05-14T09:44:09.306Z,15.16
2019-05-14T09:46:38.464Z,14.73
2019-05-14T09:49:08.026Z,15.48
2019-05-14T09:51:38.352Z,15.29
2019-05-14T09:54:08.592Z,15.59
2019-05-14T09:56:39.330Z,15.21
2019-05-14T09:59:09.034Z,14.95
2019-05-14T10:01:38.367Z,15.26
2019-05-14T10:04:09.119Z,15.75
2019-05-14T10:06:39.249Z,15.91
2019-05-14T10:09:08.588Z,15.79
2019-05-14T10:11:38.332Z,16.57
2019-05-14T10:14:07.998Z,16.41
2019-05-14T10:16:38.510Z,16.44
2019-05-14T10:19:06.828Z,16.03
2019-05-14T10:21:35.246Z,16.72
2019-05-14T10:24:03.768Z,16.73
2019-05-14T10:26:32.194Z,15.98
2019-05-14T10:29:00.636Z,16.61
2019-05-14T10:31:29.240Z,16.85
2019-05-14T10:33:58.829Z,14.98
2019-05-14T10:36:29.796Z,15.22
2019-05-14T10:38:58.813Z,15.96
2019-05-14T10:41:29.032Z,15.66
2019-05-14T10:43:58.815Z,15.50
2019-05-14T10:46:29.219Z,16.39
2019-05-14T10:49:00.244Z,17.71
2019-05-14T10:51:28.402Z,16.14
2019-05-14T10:53:59.447Z,16.24
2019-05-14T10:56:29.532Z,16.72
2019-05-14T10:58:58.371Z,16.72
2019-05-14T11:01:28.428Z,16.61
2019-05-14T11:03:56.944Z,17.53
2019-05-14T11:06:25.352Z,16.74
2019-05-14T11:08:53.766Z,16.67
2019-05-14T11:11:22.248Z,16.57
2019-05-14T11:13:50.685Z,16.26
2019-05-14T11:16:19.263Z,16.35
2019-05-14T11:18:49.803Z,14.69
2019-05-14T11:21:25.626Z,15.62
2019-05-14T11:23:49.006Z,16.03
2019-05-14T11:26:18.466Z,16.03
2019-05-14T11:28:49.132Z,16.27
2019-05-14T11:31:19.128Z,16.79
2019-05-14T11:33:49.775Z,16.06
2019-05-14T11:36:18.794Z,16.64
2019-05-14T11:38:50.272Z,16.61
2019-05-14T11:41:18.597Z,17.60
2019-05-14T11:43:49.250Z,16.89
2019-05-14T11:46:26.185Z,16.39
2019-05-14T11:48:49.043Z,17.08
2019-05-14T11:51:20.606Z,16.15
2019-05-14T11:53:49.433Z,16.07
2019-05-14T11:56:19.476Z,15.44
2019-05-14T11:58:48.117Z,15.84
2019-05-14T12:01:18.850Z,16.34
2019-05-14T12:03:49.937Z,17.15
2019-05-14T12:06:18.597Z,17.88
2019-05-14T12:08:47.181Z,17.13
2019-05-14T12:11:18.516Z,15.76
2019-05-14T12:13:48.416Z,15.96
2019-05-14T12:16:15.877Z,15.95
2019-05-14T12:18:44.336Z,16.84
2019-05-14T12:21:12.780Z,16.84
2019-05-14T12:23:41.288Z,16.43
2019-05-14T12:26:09.824Z,17.25
2019-05-14T12:28:38.779Z,17.37
2019-05-14T12:31:09.309Z,15.67
2019-05-14T12:33:39.565Z,15.67
2019-05-14T12:36:10.203Z,15.27
2019-05-14T12:38:38.539Z,15.18
2019-05-14T12:41:09.264Z,15.44
2019-05-14T12:43:39.608Z,16.12
2019-05-14T12:46:10.433Z,16.32
2019-05-14T12:48:38.979Z,16.29
2019-05-14T12:51:08.986Z,16.67
2019-05-14T12:53:39.507Z,16.74
2019-05-14T12:56:08.680Z,16.80
2019-05-14T12:58:42.883Z,16.52
2019-05-14T13:01:08.985Z,16.44
2019-05-14T13:03:37.753Z,16.19
2019-05-14T13:06:07.058Z,16.03
2019-05-14T13:08:38.705Z,16.80
2019-05-14T13:11:09.354Z,16.20
2019-05-14T13:13:42.450Z,16.51
2019-05-14T13:16:06.938Z,16.38
2019-05-14T13:18:35.393Z,16.30
2019-05-14T13:21:03.816Z,16.56
2019-05-14T13:23:32.272Z,16.28
2019-05-14T13:26:00.711Z,15.97
2019-05-14T13:28:29.378Z,15.99
2019-05-14T13:30:59.660Z,15.32
2019-05-14T13:33:28.540Z,15.82
2019-05-14T13:35:59.449Z,15.69
2019-05-14T13:38:28.042Z,16.29
2019-05-14T13:40:59.236Z,16.66
2019-05-14T13:43:30.171Z,17.24
2019-05-14T13:45:58.715Z,16.83
2019-05-14T13:48:29.729Z,16.50
2019-05-14T13:50:57.089Z,16.70
2019-05-14T13:53:25.485Z,16.82
2019-05-14T13:55:57.578Z,16.29
2019-05-14T13:58:24.055Z,16.34
2019-05-14T14:00:52.523Z,15.77
2019-05-14T14:03:20.927Z,16.46
2019-05-14T14:05:49.979Z,16.69
2019-05-14T14:08:19.300Z,16.39
2019-05-14T14:10:52.913Z,16.84
2019-05-14T14:13:19.826Z,17.42
2019-05-14T14:15:48.932Z,16.67
2019-05-14T14:18:20.956Z,17.58
2019-05-14T14:20:49.018Z,17.90
2019-05-14T14:23:26.125Z,17.16
2019-05-14T14:25:53.575Z,17.32
2019-05-14T14:28:17.986Z,17.20
2019-05-14T14:30:49.011Z,17.58
2019-05-14T14:33:18.506Z,17.41
2019-05-14T14:35:48.519Z,16.82
2019-05-14T14:38:19.747Z,16.65
2019-05-14T14:40:48.529Z,17.18
2019-05-14T14:43:18.823Z,17.85
2019-05-14T14:45:50.551Z,16.64
2019-05-14T14:48:20.346Z,16.94
2019-05-14T14:50:49.978Z,16.62
2019-05-14T14:53:20.094Z,16.92
2019-05-14T14:55:50.000Z,17.38
2019-05-14T14:58:19.987Z,16.53
2019-05-14T15:00:48.964Z,16.10
2019-05-14T15:03:21.273Z,16.99
2019-05-14T15:05:49.915Z,17.26
2019-05-14T15:08:20.130Z,16.83
2019-05-14T15:10:48.832Z,16.57
2019-05-14T15:13:17.301Z,15.79
2019-05-14T15:15:45.730Z,16.26
2019-05-14T15:18:14.275Z,16.03
2019-05-14T15:20:42.718Z,15.83
2019-05-14T15:23:11.133Z,16.60
2019-05-14T15:25:39.591Z,16.69
2019-05-14T15:28:09.400Z,16.52
2019-05-14T15:30:39.577Z,16.65
2019-05-14T15:33:09.158Z,17.11
2019-05-14T15:35:37.755Z,16.35
2019-05-14T15:38:11.151Z,16.46
2019-05-14T15:40:39.795Z,16.41
2019-05-14T15:43:09.651Z,16.92
2019-05-14T15:45:37.861Z,16.89
2019-05-14T15:48:08.949Z,17.26
2019-05-14T15:50:38.898Z,17.01
2019-05-14T15:53:10.937Z,17.65
2019-05-14T15:55:38.367Z,17.84
2019-05-14T15:58:08.697Z,17.08
2019-05-14T16:00:38.598Z,16.32
2019-05-14T16:03:08.624Z,16.30
2019-05-14T16:05:39.407Z,16.26
2019-05-14T16:08:07.503Z,16.30
2019-05-14T16:10:39.575Z,16.11
2019-05-14T16:13:08.762Z,16.84
2019-05-14T16:15:38.974Z,16.57
2019-05-14T16:18:15.497Z,15.99
2019-05-14T16:20:39.276Z,16.17
2019-05-14T16:23:10.616Z,15.42
2019-05-14T16:25:38.085Z,16.07
2019-05-14T16:28:08.692Z,16.26
2019-05-14T16:30:39.701Z,16.03
2019-05-14T16:33:09.302Z,15.32
2019-05-14T16:35:39.281Z,15.58
2019-05-14T16:38:08.331Z,15.45
2019-05-14T16:40:39.573Z,15.24
2019-05-14T16:43:07.204Z,15.73
2019-05-14T16:45:35.624Z,15.14
2019-05-14T16:48:04.040Z,14.87
2019-05-14T16:50:32.458Z,15.05
2019-05-14T16:53:01.094Z,15.45
2019-05-14T16:55:30.603Z,15.23
2019-05-14T16:57:59.393Z,15.34
2019-05-14T17:00:29.388Z,14.88
2019-05-14T17:02:59.022Z,15.06
2019-05-14T17:05:29.993Z,14.95
2019-05-14T17:07:58.690Z,15.03
2019-05-14T17:10:28.613Z,14.77
2019-05-14T17:13:01.393Z,14.97
2019-05-14T17:15:28.779Z,14.99
2019-05-14T17:17:59.757Z,14.76
2019-05-14T17:20:27.739Z,14.87
2019-05-14T17:22:56.134Z,15.13
2019-05-14T17:25:27.198Z,14.74
2019-05-14T17:27:54.736Z,14.83
2019-05-14T17:30:23.168Z,14.87
2019-05-14T17:32:51.591Z,14.79
2019-05-14T17:35:20.402Z,14.93
2019-05-14T17:37:48.842Z,14.89
2019-05-14T17:40:17.409Z,14.58
2019-05-14T17:42:48.560Z,14.70
2019-05-14T17:45:17.532Z,14.50
2019-05-14T17:47:45.951Z,14.42
2019-05-14T17:50:14.366Z,14.19
2019-05-14T17:52:45.223Z,13.99
2019-05-14T17:55:13.501Z,14.18
2019-05-14T17:57:47.601Z,14.18
2019-05-14T18:00:12.403Z,14.04
2019-05-14T18:02:40.812Z,14.28
2019-05-14T18:05:09.864Z,14.04
2019-05-14T18:07:38.346Z,14.01
2019-05-14T18:10:08.915Z,14.08
2019-05-14T18:12:39.628Z,13.99
2019-05-14T18:15:08.787Z,14.06
2019-05-14T18:17:39.393Z,13.89
2019-05-14T18:20:08.801Z,13.75
2019-05-14T18:22:42.149Z,13.94
2019-05-14T18:25:08.417Z,13.84
2019-05-14T18:27:51.990Z,13.81
2019-05-14T18:30:20.487Z,13.67
2019-05-14T18:32:48.933Z,13.58
2019-05-14T18:35:18.778Z,13.59
2019-05-14T18:37:48.282Z,13.65
2019-05-14T18:40:18.325Z,13.53
2019-05-14T18:42:48.048Z,13.27
2019-05-14T18:45:19.035Z,13.40
2019-05-14T18:47:48.503Z,13.27
2019-05-14T18:50:19.663Z,13.17
2019-05-14T18:52:48.612Z,13.10
2019-05-14T18:55:18.701Z,13.09
2019-05-14T18:57:48.692Z,12.98
2019-05-14T19:00:18.584Z,13.00
2019-05-14T19:02:48.233Z,13.03
2019-05-14T19:05:18.324Z,12.98
2019-05-14T19:07:48.655Z,12.87
2019-05-14T19:10:19.128Z,12.65
2019-05-14T19:12:49.984Z,12.42
2019-05-14T19:15:19.139Z,12.59
2019-05-14T19:17:48.935Z,12.36
2019-05-14T19:20:19.271Z,12.39
2019-05-14T19:22:49.085Z,12.43
2019-05-14T19:25:18.612Z,12.38
2019-05-14T19:27:48.752Z,12.21
2019-05-14T19:30:19.219Z,12.22
2019-05-14T19:32:48.638Z,12.23
2019-05-14T19:35:19.200Z,12.11
2019-05-14T19:37:48.656Z,12.11
2019-05-14T19:40:20.118Z,12.02
2019-05-14T19:42:48.919Z,12.03
2019-05-14T19:45:17.775Z,11.99
2019-05-14T19:47:46.342Z,11.95
2019-05-14T19:50:15.023Z,11.95
2019-05-14T19:52:43.439Z,11.82
2019-05-14T19:55:12.172Z,11.77
2019-05-14T19:57:41.743Z,11.80
2019-05-14T20:00:10.894Z,11.68
2019-05-14T20:02:39.349Z,11.69
2019-05-14T20:05:09.305Z,11.73
2019-05-14T20:07:39.189Z,11.65
2019-05-14T20:10:08.755Z,11.57
2019-05-14T20:12:39.141Z,11.53
2019-05-14T20:15:09.728Z,11.49
2019-05-14T20:17:38.964Z,11.47
2019-05-14T20:20:09.337Z,11.28
2019-05-14T20:22:39.125Z,11.28
2019-05-14T20:25:09.327Z,11.26
2019-05-14T20:27:39.007Z,11.07
2019-05-14T20:30:10.014Z,11.09
2019-05-14T20:32:39.003Z,11.08
2019-05-14T20:35:09.244Z,11.04
2019-05-14T20:37:38.713Z,11.10
2019-05-14T20:40:08.072Z,10.98
2019-05-14T20:42:39.161Z,10.96
2019-05-14T20:45:07.236Z,10.92
2019-05-14T20:47:35.640Z,10.93
2019-05-14T20:50:05.645Z,10.88
2019-05-14T20:52:34.063Z,10.82
2019-05-14T20:55:02.468Z,10.69
2019-05-14T20:57:33.472Z,10.66
2019-05-14T21:00:01.045Z,10.68
2019-05-14T21:02:29.669Z,10.70
2019-05-14T21:05:04.212Z,10.72
2019-05-14T21:07:28.883Z,10.67
2019-05-14T21:09:57.499Z,10.57
2019-05-14T21:12:28.703Z,10.52
2019-05-14T21:14:56.059Z,10.51
2019-05-14T21:17:24.583Z,10.59
2019-05-14T21:19:53.109Z,10.47
2019-05-14T21:22:21.755Z,10.42
2019-05-14T21:24:53.160Z,10.29
2019-05-14T21:27:20.359Z,10.31
2019-05-14T21:29:48.981Z,10.12
2019-05-14T21:32:19.769Z,9.98
2019-05-14T21:34:49.130Z,9.94
2019-05-14T21:37:18.787Z,9.96
2019-05-14T21:39:49.102Z,9.98
2019-05-14T21:42:19.565Z,9.97
2019-05-14T21:44:48.363Z,9.90
2019-05-14T21:47:18.013Z,9.95
2019-05-14T21:49:48.327Z,10.03
2019-05-14T21:52:18.008Z,10.00
2019-05-14T21:54:48.091Z,10.03
2019-05-14T21:57:18.853Z,10.03
2019-05-14T21:59:48.028Z,9.99
2019-05-14T22:02:24.430Z,9.92
2019-05-14T22:04:49.187Z,9.81
2019-05-14T22:07:18.461Z,9.71
2019-05-14T22:09:48.759Z,9.59
2019-05-14T22:12:20.340Z,9.44
2019-05-14T22:14:48.168Z,9.36
2019-05-14T22:17:16.691Z,9.20
2019-05-14T22:19:45.114Z,9.05
2019-05-14T22:22:13.556Z,8.98
2019-05-14T22:24:42.055Z,8.94
2019-05-14T22:27:10.491Z,8.91
2019-05-14T22:29:38.931Z,8.88
2019-05-14T22:32:08.239Z,8.85
2019-05-14T22:34:38.514Z,8.83
2019-05-14T22:37:07.209Z,8.69
2019-05-14T22:39:35.655Z,8.69
2019-05-14T22:42:04.078Z,8.61
2019-05-14T22:44:32.530Z,8.63
2019-05-14T22:47:00.994Z,8.57
2019-05-14T22:49:29.434Z,8.49
2019-05-14T22:51:58.837Z,8.45
2019-05-14T22:54:29.140Z,8.41
2019-05-14T22:56:58.975Z,8.38
2019-05-14T22:59:28.315Z,8.34
2019-05-14T23:01:58.841Z,8.25
2019-05-14T23:04:28.987Z,8.21
2019-05-14T23:06:58.679Z,8.21
2019-05-14T23:09:27.202Z,8.15
2019-05-14T23:11:55.636Z,8.07
2019-05-14T23:14:24.053Z,7.97
2019-05-14T23:16:52.508Z,7.89
2019-05-14T23:19:21.105Z,7.87
2019-05-14T23:21:49.556Z,7.89
2019-05-14T23:24:18.969Z,7.86
2019-05-14T23:26:49.177Z,7.85
2019-05-14T23:29:17.825Z,7.88
2019-05-14T23:31:48.679Z,7.86
2019-05-14T23:34:18.870Z,7.83
2019-05-14T23:36:48.331Z,7.81
2019-05-14T23:39:17.073Z,7.72
2019-05-14T23:41:45.903Z,7.66
2019-05-14T23:44:14.333Z,7.62
2019-05-14T23:46:42.776Z,7.62
2019-05-14T23:49:11.207Z,7.57
2019-05-14T23:51:39.646Z,7.48
2019-05-14T23:54:08.736Z,7.48
2019-05-14T23:56:38.346Z,7.45
2019-05-14T23:59:09.081Z,7.38
